Time;durP1;ratioP1;P1;durP2;ratioP2;P2;SDS_P1;SDS_P2;PMS_P1;PMS_P2;Temp;Humidity;BMP_temperature;BMP_pressure;BME280_temperature;BME280_humidity;BME280_pressure;Samples;Min_cycle;Max_cycle;Signal;HPM_P1;HPM_P2
2021/12/03 00:01:00;;;;;;;3.60;2.75;;;4.50;76.00;;;;;;5053928;28;20143;-83
2021/12/03 00:03:26;;;;;;;2.35;2.13;;;4.50;76.10;;;;;;5054508;28;20061;-82
2021/12/03 00:05:55;;;;;;;3.15;2.28;;;4.50;76.00;;;;;;5037691;28;20069;-81
2021/12/03 00:08:21;;;;;;;3.80;2.70;;;4.50;76.00;;;;;;5037788;28;20029;-82
2021/12/03 00:10:54;;;;;;;3.55;2.63;;;4.50;76.00;;;;;;5054499;28;20082;-82
2021/12/03 00:13:21;;;;;;;3.53;2.42;;;4.50;76.00;;;;;;5022241;28;20052;-81
2021/12/03 00:15:47;;;;;;;3.75;2.78;;;4.50;76.00;;;;;;5054731;28;20094;-81
2021/12/03 00:18:13;;;;;;;2.95;2.25;;;4.50;76.10;;;;;;5054967;28;20444;-81
2021/12/03 00:20:39;;;;;;;3.30;2.47;;;4.50;76.00;;;;;;5037128;28;20021;-81
2021/12/03 00:23:07;;;;;;;3.70;2.50;;;4.40;76.00;;;;;;5037240;28;20029;-82
2021/12/03 00:25:34;;;;;;;3.15;2.50;;;4.50;76.00;;;;;;5053631;28;20029;-81
2021/12/03 00:28:00;;;;;;;4.57;2.47;;;4.40;76.00;;;;;;5021752;28;20098;-80
2021/12/03 00:30:27;;;;;;;4.07;2.80;;;4.40;76.00;;;;;;5020895;28;20025;-81
2021/12/03 00:32:54;;;;;;;3.47;2.50;;;4.40;76.00;;;;;;5054751;28;20076;-81
2021/12/03 00:35:20;;;;;;;3.47;2.58;;;4.40;76.00;;;;;;5020757;28;20035;-79
2021/12/03 00:37:47;;;;;;;3.75;2.60;;;4.40;76.00;;;;;;5020417;28;20037;-81
2021/12/03 00:40:17;;;;;;;3.47;2.10;;;4.40;76.00;;;;;;5053399;28;20037;-83
2021/12/03 00:42:43;;;;;;;3.13;2.45;;;4.40;76.00;;;;;;5053642;28;20077;-82
2021/12/03 00:45:12;;;;;;;3.38;2.55;;;4.40;76.00;;;;;;5037036;28;20029;-86
2021/12/03 00:47:39;;;;;;;3.55;2.50;;;4.40;76.00;;;;;;5037032;28;20051;-81
2021/12/03 00:50:07;;;;;;;3.55;2.70;;;4.30;76.00;;;;;;5053972;28;20036;-82
2021/12/03 00:52:32;;;;;;;3.58;2.72;;;4.30;76.00;;;;;;5036012;28;20029;-82
2021/12/03 00:54:58;;;;;;;3.70;2.72;;;4.30;76.00;;;;;;5037319;28;20469;-82
2021/12/03 00:57:24;;;;;;;3.67;2.70;;;4.30;76.00;;;;;;5052981;28;20029;-82
2021/12/03 00:59:50;;;;;;;3.92;2.70;;;4.30;76.00;;;;;;5035633;28;20105;-85
2021/12/03 01:02:17;;;;;;;3.78;2.50;;;4.30;76.00;;;;;;5036822;28;20358;-83
2021/12/03 01:04:44;;;;;;;3.80;2.67;;;4.30;76.00;;;;;;5036637;28;20537;-82
2021/12/03 01:07:09;;;;;;;3.35;2.33;;;4.30;76.00;;;;;;5053845;28;20098;-82
2021/12/03 01:09:35;;;;;;;3.17;2.38;;;4.30;76.00;;;;;;5053081;28;20032;-86
2021/12/03 01:12:01;;;;;;;4.00;2.88;;;4.30;76.00;;;;;;5036850;28;20029;-84
2021/12/03 01:14:28;;;;;;;3.63;2.60;;;4.30;76.10;;;;;;5053079;28;20078;-82
2021/12/03 01:16:54;;;;;;;3.22;2.42;;;4.30;76.10;;;;;;5052882;28;20037;-84
2021/12/03 01:19:20;;;;;;;3.33;2.50;;;4.30;76.00;;;;;;5036471;28;20029;-84
2021/12/03 01:21:48;;;;;;;3.63;2.83;;;4.30;76.00;;;;;;5053105;28;20036;-83
2021/12/03 01:24:14;;;;;;;3.35;2.58;;;4.30;76.60;;;;;;5052852;28;20543;-87
2021/12/03 01:26:41;;;;;;;3.70;2.70;;;4.30;76.00;;;;;;5054093;28;20025;-82
2021/12/03 01:29:07;;;;;;;3.78;2.65;;;4.20;76.00;;;;;;5019723;28;20031;-81
2021/12/03 01:31:33;;;;;;;4.22;2.72;;;4.20;76.00;;;;;;5053026;28;20029;-81
2021/12/03 01:33:59;;;;;;;3.80;2.80;;;4.20;76.00;;;;;;5036318;28;20041;-81
2021/12/03 01:36:25;;;;;;;4.20;2.85;;;4.20;76.00;;;;;;5053518;28;20033;-81
2021/12/03 01:38:51;;;;;;;3.67;2.75;;;4.20;76.00;;;;;;5053325;28;20076;-82
2021/12/03 01:41:16;;;;;;;2.80;2.50;;;4.20;76.00;;;;;;5052970;28;20025;-83
2021/12/03 01:43:44;;;;;;;3.22;2.72;;;4.20;76.00;;;;;;5037073;28;20141;-81
2021/12/03 01:46:11;;;;;;;3.92;2.65;;;4.20;76.00;;;;;;5052904;28;20059;-81
2021/12/03 01:48:38;;;;;;;3.33;2.70;;;4.20;76.00;;;;;;5019763;28;20098;-81
2021/12/03 01:51:05;;;;;;;3.67;2.90;;;4.20;76.00;;;;;;5053259;28;20021;-82
2021/12/03 01:53:36;;;;;;;3.83;2.70;;;4.20;76.00;;;;;;5053007;28;20029;-81
2021/12/03 01:56:06;;;;;;;3.22;2.70;;;4.20;76.00;;;;;;5053132;28;20067;-81
2021/12/03 01:58:32;;;;;;;3.95;2.70;;;4.20;76.00;;;;;;5052434;28;20486;-85
2021/12/03 02:01:05;;;;;;;3.60;2.80;;;4.20;76.00;;;;;;5053812;28;20053;-81
2021/12/03 02:03:34;;;;;;;4.30;3.30;;;4.20;76.10;;;;;;5053540;28;20025;-82
2021/12/03 02:06:02;;;;;;;3.58;2.83;;;4.20;76.00;;;;;;5052468;28;20032;-81
2021/12/03 02:08:28;;;;;;;4.10;3.00;;;4.20;76.00;;;;;;5052396;28;20035;-81
2021/12/03 02:10:54;;;;;;;3.55;2.80;;;4.10;76.00;;;;;;5053593;28;20044;-81
2021/12/03 02:13:20;;;;;;;3.28;2.60;;;4.10;76.00;;;;;;5056741;28;20057;-82
2021/12/03 02:15:47;;;;;;;4.03;3.10;;;4.10;76.00;;;;;;5055860;28;20055;-81
2021/12/03 02:18:15;;;;;;;3.70;2.70;;;4.20;76.10;;;;;;5039627;28;20041;-82
2021/12/03 02:20:45;;;;;;;3.78;2.92;;;4.10;76.00;;;;;;5040113;28;20056;-82
2021/12/03 02:23:13;;;;;;;3.63;2.88;;;4.20;76.00;;;;;;5056274;28;20049;-82
2021/12/03 02:25:38;;;;;;;3.47;2.95;;;4.10;76.00;;;;;;5039850;28;20361;-82
2021/12/03 02:28:04;;;;;;;4.32;3.15;;;4.20;76.00;;;;;;5056145;28;20029;-82
2021/12/03 02:30:30;;;;;;;3.55;3.03;;;4.10;76.00;;;;;;5039577;28;20025;-82
2021/12/03 02:32:56;;;;;;;3.47;2.83;;;4.10;76.00;;;;;;5023870;28;20044;-82
2021/12/03 02:35:23;;;;;;;4.15;3.10;;;4.10;76.00;;;;;;5055745;28;20461;-87
2021/12/03 02:37:49;;;;;;;3.90;3.00;;;4.10;76.00;;;;;;5055948;28;20041;-81
2021/12/03 02:40:16;;;;;;;4.57;3.50;;;4.10;76.10;;;;;;5039277;28;20021;-81
2021/12/03 02:42:42;;;;;;;4.07;3.10;;;4.10;76.10;;;;;;5056091;28;20029;-83
2021/12/03 02:45:10;;;;;;;4.43;3.35;;;4.10;76.10;;;;;;5055685;28;20025;-83
2021/12/03 02:47:36;;;;;;;4.47;3.05;;;4.10;76.10;;;;;;5056531;28;20238;-84
2021/12/03 02:50:05;;;;;;;3.85;3.08;;;4.10;76.10;;;;;;5055753;28;20025;-82
2021/12/03 02:52:30;;;;;;;4.13;3.30;;;4.10;76.20;;;;;;5039308;28;20033;-82
2021/12/03 02:54:56;;;;;;;4.47;3.42;;;4.10;76.10;;;;;;5022860;28;20071;-82
2021/12/03 02:57:22;;;;;;;4.20;3.20;;;4.10;76.10;;;;;;5022544;28;20390;-86
2021/12/03 02:59:48;;;;;;;4.75;3.33;;;4.10;76.10;;;;;;5056631;28;20063;-82
2021/12/03 03:02:14;;;;;;;5.70;3.58;;;4.10;76.20;;;;;;5039096;28;20408;-83
2021/12/03 03:04:39;;;;;;;3.72;3.28;;;4.10;76.20;;;;;;5039276;28;20063;-82
2021/12/03 03:07:05;;;;;;;5.85;3.63;;;4.10;76.20;;;;;;5022810;28;20095;-82
2021/12/03 03:09:32;;;;;;;5.65;3.80;;;4.10;76.20;;;;;;5039397;28;20108;-82
2021/12/03 03:11:58;;;;;;;4.88;3.28;;;4.10;76.20;;;;;;5040576;28;20025;-82
2021/12/03 03:14:25;;;;;;;3.78;3.08;;;4.10;76.20;;;;;;5055999;28;20021;-83
2021/12/03 03:16:52;;;;;;;4.32;3.22;;;4.10;76.20;;;;;;5055061;28;20492;-82
2021/12/03 03:19:20;;;;;;;5.07;3.20;;;4.10;76.20;;;;;;5039124;28;20469;-83
2021/12/03 03:21:47;;;;;;;4.25;3.15;;;4.10;76.20;;;;;;5055028;28;20096;-84
2021/12/03 03:24:14;;;;;;;4.57;3.40;;;4.10;76.20;;;;;;5055022;28;20029;-82
2021/12/03 03:26:42;;;;;;;5.20;3.70;;;4.10;76.20;;;;;;5054913;28;20028;-82
2021/12/03 03:29:11;;;;;;;3.92;3.08;;;4.10;76.20;;;;;;5038304;28;20029;-83
2021/12/03 03:31:38;;;;;;;3.78;3.13;;;4.20;76.30;;;;;;5038442;28;20032;-80
2021/12/03 03:34:05;;;;;;;5.63;3.20;;;4.20;76.30;;;;;;5038598;28;20454;-82
2021/12/03 03:36:32;;;;;;;4.78;3.58;;;4.20;76.30;;;;;;5055991;28;20473;-82
2021/12/03 03:38:59;;;;;;;4.03;3.25;;;4.20;76.30;;;;;;5037882;28;20047;-82
2021/12/03 03:41:27;;;;;;;4.75;3.65;;;4.10;76.20;;;;;;5055078;28;20025;-82
2021/12/03 03:43:53;;;;;;;5.38;3.60;;;4.20;76.30;;;;;;5038338;28;20029;-82
2021/12/03 03:46:19;;;;;;;4.85;3.63;;;4.20;76.30;;;;;;5038201;28;20546;-83
2021/12/03 03:48:45;;;;;;;4.43;3.47;;;4.20;76.30;;;;;;5038155;28;20064;-82
2021/12/03 03:51:11;;;;;;;4.55;3.45;;;4.20;76.30;;;;;;5038003;28;20016;-83
2021/12/03 03:53:39;;;;;;;5.18;3.53;;;4.20;76.30;;;;;;5038052;28;20060;-82
2021/12/03 03:56:06;;;;;;;5.75;3.67;;;4.20;76.30;;;;;;5037853;28;20063;-82
2021/12/03 03:58:32;;;;;;;5.97;3.92;;;4.20;76.40;;;;;;5037811;28;20563;-83
2021/12/03 04:00:58;;;;;;;4.72;3.65;;;4.20;76.30;;;;;;5037818;28;20068;-82
2021/12/03 04:03:24;;;;;;;5.32;3.78;;;4.20;76.40;;;;;;5054591;28;20036;-82
2021/12/03 04:05:50;;;;;;;6.88;4.68;;;4.20;76.40;;;;;;5037614;28;20135;-83
2021/12/03 04:08:16;;;;;;;5.38;4.18;;;4.20;76.40;;;;;;5054412;28;20064;-83
2021/12/03 04:10:42;;;;;;;4.80;3.90;;;4.20;76.50;;;;;;5037900;28;20116;-82
2021/12/03 04:13:08;;;;;;;5.25;4.07;;;4.20;76.40;;;;;;5053986;28;20607;-83
2021/12/03 04:15:34;;;;;;;5.10;4.00;;;4.20;76.40;;;;;;5037494;28;20037;-83
2021/12/03 04:18:00;;;;;;;5.18;4.07;;;4.20;76.40;;;;;;5037809;28;20041;-83
2021/12/03 04:20:26;;;;;;;5.40;4.13;;;4.20;76.50;;;;;;5054037;28;20021;-82
2021/12/03 04:22:52;;;;;;;6.10;4.32;;;4.20;76.50;;;;;;5053662;28;20025;-82
2021/12/03 04:25:20;;;;;;;5.47;4.15;;;4.30;76.50;;;;;;5037493;28;20029;-84
2021/12/03 04:27:46;;;;;;;5.85;4.53;;;4.30;76.50;;;;;;5053912;28;20112;-83
2021/12/03 04:30:18;;;;;;;6.38;4.70;;;4.20;76.50;;;;;;5053747;28;20029;-83
2021/12/03 04:32:44;;;;;;;6.05;4.22;;;4.20;76.50;;;;;;5037492;28;20037;-85
2021/12/03 04:35:10;;;;;;;5.90;4.72;;;4.20;76.50;;;;;;5053164;28;20025;-83
2021/12/03 04:37:36;;;;;;;6.30;4.53;;;4.30;76.60;;;;;;5053800;28;20044;-82
2021/12/03 04:40:04;;;;;;;6.40;4.82;;;4.30;76.60;;;;;;5053864;28;20039;-84
2021/12/03 04:42:30;;;;;;;6.93;5.35;;;4.30;76.60;;;;;;5020762;28;20033;-87
2021/12/03 04:44:56;;;;;;;6.25;4.82;;;4.30;76.60;;;;;;5037080;28;20056;-87
2021/12/03 04:47:22;;;;;;;6.28;4.80;;;4.30;76.60;;;;;;5036983;28;20044;-82
2021/12/03 04:49:47;;;;;;;6.68;5.18;;;4.30;76.60;;;;;;5053774;28;20494;-82
2021/12/03 04:52:13;;;;;;;6.60;5.00;;;4.30;76.60;;;;;;5053857;28;20025;-82
2021/12/03 04:54:39;;;;;;;7.82;5.75;;;4.30;76.60;;;;;;5053686;28;20086;-84
2021/12/03 04:57:05;;;;;;;6.70;5.38;;;4.30;76.60;;;;;;5037538;28;20492;-83
2021/12/03 04:59:31;;;;;;;7.43;5.70;;;4.30;76.60;;;;;;5053774;28;20025;-83
2021/12/03 05:01:58;;;;;;;7.97;5.53;;;4.30;76.60;;;;;;5036230;28;20394;-83
2021/12/03 05:04:24;;;;;;;8.70;6.05;;;4.30;76.60;;;;;;5036597;28;20033;-83
2021/12/03 05:09:39;;;;;;;7.55;5.70;;;4.40;76.70;;;;;;5018580;28;20036;-83
2021/12/03 05:12:06;;;;;;;8.65;6.68;;;4.30;76.60;;;;;;5038326;28;20476;-83
2021/12/03 05:14:32;;;;;;;8.02;5.88;;;4.40;76.70;;;;;;5055658;28;20177;-83
2021/12/03 05:16:57;;;;;;;9.40;6.35;;;4.40;76.70;;;;;;5022198;28;20497;-83
2021/12/03 05:19:23;;;;;;;8.25;6.30;;;4.40;76.70;;;;;;5037756;28;20029;-83
2021/12/03 05:21:49;;;;;;;9.80;7.00;;;4.40;76.70;;;;;;5021055;28;20025;-83
2021/12/03 05:24:16;;;;;;;8.15;6.65;;;4.40;76.70;;;;;;5037931;28;20478;-81
2021/12/03 05:26:44;;;;;;;8.73;6.43;;;4.40;76.70;;;;;;5037509;28;20025;-85
2021/12/03 05:29:10;;;;;;;8.93;6.88;;;4.40;76.70;;;;;;5038495;28;20029;-83
2021/12/03 05:31:37;;;;;;;10.18;7.13;;;4.40;76.70;;;;;;5020655;28;20060;-81
2021/12/03 05:34:05;;;;;;;11.68;7.30;;;4.40;76.70;;;;;;5036527;28;20033;-82
2021/12/03 05:36:31;;;;;;;11.25;7.03;;;4.40;76.70;;;;;;5054048;28;20041;-83
2021/12/03 05:38:57;;;;;;;10.88;7.95;;;4.40;76.80;;;;;;5035939;28;20037;-83
2021/12/03 05:41:23;;;;;;;11.40;7.95;;;4.50;76.80;;;;;;5053476;28;20490;-84
2021/12/03 05:43:49;;;;;;;10.15;7.43;;;4.50;76.80;;;;;;5054690;28;20025;-83
2021/12/03 05:46:15;;;;;;;11.95;7.75;;;4.50;76.80;;;;;;5058163;28;20029;-86
2021/12/03 05:48:41;;;;;;;10.43;7.10;;;4.50;76.80;;;;;;5042381;28;20063;-84
2021/12/03 05:51:07;;;;;;;12.18;7.85;;;4.50;76.80;;;;;;5042345;28;20021;-84
2021/12/03 05:53:33;;;;;;;11.65;7.88;;;4.50;76.80;;;;;;5041777;28;20112;-83
2021/12/03 05:55:59;;;;;;;11.05;7.72;;;4.50;76.80;;;;;;5024100;28;20056;-83
2021/12/03 05:58:25;;;;;;;12.70;8.43;;;4.50;76.80;;;;;;5041040;28;20044;-80
2021/12/03 06:00:51;;;;;;;12.93;8.90;;;4.50;76.90;;;;;;5023468;28;20044;-88
2021/12/03 06:03:17;;;;;;;13.25;8.57;;;4.50;76.80;;;;;;5056602;28;20470;-83
2021/12/03 06:05:43;;;;;;;13.18;8.52;;;4.60;76.90;;;;;;5040413;28;20067;-84
2021/12/03 06:08:11;;;;;;;11.95;8.48;;;4.50;76.80;;;;;;5023640;28;20033;-82
2021/12/03 06:10:37;;;;;;;13.00;8.95;;;4.60;77.00;;;;;;5058454;28;20025;-85
2021/12/03 06:13:03;;;;;;;13.35;8.73;;;4.60;77.50;;;;;;5040185;28;20041;-85
2021/12/03 06:15:29;;;;;;;13.15;8.45;;;4.60;76.90;;;;;;5040292;28;20043;-82
2021/12/03 06:17:56;;;;;;;13.32;9.27;;;4.60;76.90;;;;;;5039634;28;20040;-82
2021/12/03 06:20:22;;;;;;;12.73;8.57;;;4.60;76.90;;;;;;5039508;28;20025;-83
2021/12/03 06:22:48;;;;;;;12.57;8.25;;;4.60;77.00;;;;;;5056358;28;20033;-84
2021/12/03 06:25:15;;;;;;;13.90;8.85;;;4.60;76.90;;;;;;5039661;28;20524;-81
2021/12/03 06:27:42;;;;;;;12.13;8.93;;;4.60;76.90;;;;;;5024165;28;20488;-83
2021/12/03 06:30:11;;;;;;;14.73;9.82;;;4.60;76.90;;;;;;5056124;28;20033;-84
2021/12/03 06:32:38;;;;;;;13.32;9.40;;;4.60;76.90;;;;;;5055998;28;20036;-85
2021/12/03 06:35:06;;;;;;;12.55;9.15;;;4.60;76.90;;;;;;5056079;28;20120;-82
2021/12/03 06:37:32;;;;;;;13.63;9.05;;;4.60;76.90;;;;;;5056229;28;20045;-83
2021/12/03 06:39:58;;;;;;;12.52;8.30;;;4.70;76.90;;;;;;5055881;28;20056;-83
2021/12/03 06:42:24;;;;;;;13.57;9.05;;;4.70;77.00;;;;;;5039285;28;20075;-82
2021/12/03 06:44:50;;;;;;;13.15;8.88;;;4.70;77.00;;;;;;5023562;28;20029;-82
2021/12/03 06:47:16;;;;;;;13.85;9.55;;;4.70;77.00;;;;;;5055888;28;20039;-82
2021/12/03 06:49:42;;;;;;;14.18;9.18;;;4.70;76.90;;;;;;5056895;28;20411;-85
2021/12/03 06:52:11;;;;;;;14.38;9.75;;;4.70;76.90;;;;;;5022922;28;20032;-83
2021/12/03 06:54:37;;;;;;;14.38;9.27;;;4.70;77.00;;;;;;5055840;28;20021;-82
2021/12/03 06:57:05;;;;;;;13.80;8.77;;;4.70;77.00;;;;;;5055689;28;20040;-82
2021/12/03 06:59:32;;;;;;;15.15;10.32;;;4.70;76.90;;;;;;5022700;28;20040;-84
2021/12/03 07:01:58;;;;;;;12.95;9.20;;;4.70;76.90;;;;;;5039279;28;20127;-82
2021/12/03 07:04:24;;;;;;;16.80;9.43;;;4.70;76.90;;;;;;5055783;28;20057;-82
2021/12/03 07:06:51;;;;;;;13.73;9.63;;;4.80;77.00;;;;;;5007047;28;20469;-80
2021/12/03 07:09:17;;;;;;;13.98;9.38;;;4.80;77.00;;;;;;5039559;28;20036;-84
2021/12/03 07:11:44;;;;;;;14.75;9.35;;;4.80;77.00;;;;;;5038450;28;20539;-83
2021/12/03 07:14:09;;;;;;;11.57;8.43;;;4.80;77.00;;;;;;5038863;28;20025;-81
2021/12/03 07:16:35;;;;;;;13.75;9.00;;;4.80;77.00;;;;;;5055584;28;20029;-82
2021/12/03 07:19:02;;;;;;;13.63;8.65;;;4.80;77.00;;;;;;5055184;28;20041;-83
2021/12/03 07:21:28;;;;;;;14.50;10.32;;;4.80;77.00;;;;;;5055337;28;20033;-82
2021/12/03 07:23:54;;;;;;;13.52;8.20;;;4.80;77.00;;;;;;5039436;28;20143;-82
2021/12/03 07:26:22;;;;;;;13.60;9.18;;;4.80;77.00;;;;;;5038537;28;20462;-82
2021/12/03 07:28:48;;;;;;;13.98;8.98;;;4.80;77.00;;;;;;5022594;28;20527;-83
2021/12/03 07:31:14;;;;;;;12.73;8.30;;;4.80;77.00;;;;;;5039387;28;20124;-84
2021/12/03 07:33:41;;;;;;;11.95;8.15;;;4.90;77.00;;;;;;5055447;28;20029;-85
2021/12/03 07:36:07;;;;;;;12.93;8.88;;;4.90;77.00;;;;;;5038317;28;20028;-84
2021/12/03 07:38:34;;;;;;;11.82;8.15;;;4.90;77.00;;;;;;5037821;28;20516;-80
2021/12/03 07:41:00;;;;;;;11.75;8.13;;;4.90;77.00;;;;;;5054310;28;20028;-78
2021/12/03 07:43:25;;;;;;;11.50;8.27;;;4.90;77.00;;;;;;5037402;28;20033;-82
2021/12/03 07:45:52;;;;;;;10.80;8.18;;;4.90;77.00;;;;;;5055062;28;20056;-84
2021/12/03 07:48:21;;;;;;;11.45;7.90;;;4.90;77.00;;;;;;5054528;28;20025;-83
2021/12/03 07:50:47;;;;;;;10.18;7.07;;;4.90;77.00;;;;;;5038572;28;20032;-86
2021/12/03 07:53:17;;;;;;;10.57;7.25;;;4.90;77.00;;;;;;5054592;28;20032;-83
2021/12/03 07:55:47;;;;;;;10.27;7.18;;;4.90;77.00;;;;;;5038385;28;20059;-82
2021/12/03 07:58:14;;;;;;;10.55;7.50;;;4.90;77.00;;;;;;5037855;28;20111;-82
2021/12/03 08:00:40;;;;;;;10.85;6.65;;;5.00;77.10;;;;;;5054261;28;20053;-81
2021/12/03 08:03:06;;;;;;;9.27;6.50;;;4.90;77.00;;;;;;5021380;28;20037;-81
2021/12/03 08:05:32;;;;;;;9.77;6.90;;;5.00;77.00;;;;;;5038051;28;20457;-82
2021/12/03 08:07:59;;;;;;;8.98;6.57;;;5.00;77.00;;;;;;5054601;28;20037;-83
2021/12/03 08:10:26;;;;;;;9.32;6.53;;;5.00;77.10;;;;;;5054393;28;20063;-83
2021/12/03 08:12:52;;;;;;;9.65;6.32;;;5.00;77.10;;;;;;5054587;28;20120;-84
2021/12/03 08:15:18;;;;;;;9.02;6.05;;;5.00;77.00;;;;;;5054377;28;20021;-83
2021/12/03 08:17:48;;;;;;;9.77;6.55;;;5.00;77.00;;;;;;5038058;28;20063;-83
2021/12/03 08:20:16;;;;;;;9.35;6.25;;;5.00;77.10;;;;;;5037565;28;20029;-84
2021/12/03 08:22:42;;;;;;;9.43;6.70;;;5.00;77.00;;;;;;5037618;28;20072;-85
2021/12/03 08:25:09;;;;;;;10.32;5.88;;;5.10;77.10;;;;;;5020944;28;20131;-82
2021/12/03 08:27:35;;;;;;;9.05;5.53;;;5.00;77.00;;;;;;5055889;28;20083;-83
2021/12/03 08:30:05;;;;;;;9.70;6.22;;;5.00;77.00;;;;;;5037854;28;20442;-84
2021/12/03 08:32:31;;;;;;;8.15;5.40;;;5.10;77.10;;;;;;5022074;28;20450;-83
2021/12/03 08:34:57;;;;;;;7.25;5.47;;;5.10;77.00;;;;;;5037480;28;20083;-82
2021/12/03 08:37:23;;;;;;;8.57;5.60;;;5.10;77.10;;;;;;5021105;28;20108;-84
2021/12/03 08:39:48;;;;;;;6.65;4.18;;;5.10;77.10;;;;;;5020830;28;20056;-83
2021/12/03 08:42:15;;;;;;;7.30;4.90;;;5.10;77.00;;;;;;5037594;28;20044;-83
2021/12/03 08:44:41;;;;;;;8.95;4.88;;;5.10;77.70;;;;;;5055038;28;20028;-83
2021/12/03 08:47:07;;;;;;;8.18;5.20;;;5.10;77.00;;;;;;5037350;28;20033;-88
2021/12/03 08:49:47;;;;;;;7.50;5.20;;;5.10;77.00;;;;;;5036861;28;20021;-86
2021/12/03 08:52:49;;;;;;;8.52;4.75;;;5.20;77.10;;;;;;5053847;28;20029;-87
2021/12/03 08:55:15;;;;;;;6.75;4.28;;;5.20;77.10;;;;;;5025547;28;20036;-86
2021/12/03 08:57:44;;;;;;;6.68;4.50;;;5.20;77.00;;;;;;5037357;28;20037;-86
2021/12/03 09:00:22;;;;;;;7.28;4.28;;;5.20;77.10;;;;;;5037587;28;20128;-88
2021/12/03 09:03:03;;;;;;;6.65;4.35;;;5.20;77.20;;;;;;5021725;28;20171;-87
2021/12/03 09:05:34;;;;;;;7.43;4.28;;;5.20;77.10;;;;;;5037199;28;20421;-86
2021/12/03 09:08:11;;;;;;;6.50;4.07;;;5.20;77.10;;;;;;5037633;28;20029;-86
2021/12/03 09:10:43;;;;;;;5.95;4.00;;;5.20;77.10;;;;;;5053939;28;20446;-86
2021/12/03 09:13:20;;;;;;;6.72;4.15;;;5.20;77.10;;;;;;5036688;28;20025;-87
2021/12/03 09:16:09;;;;;;;7.78;4.10;;;5.20;77.10;;;;;;5037233;28;20057;-86
2021/12/03 09:18:47;;;;;;;6.35;4.00;;;5.30;77.10;;;;;;5053329;28;20041;-87
2021/12/03 09:21:26;;;;;;;6.20;4.10;;;5.30;77.10;;;;;;5036793;28;20032;-90
2021/12/03 09:26:30;;;;;;;5.23;3.47;;;5.30;77.10;;;;;;5038804;28;20060;-86
2021/12/03 09:29:07;;;;;;;5.20;3.42;;;5.30;77.10;;;;;;5037029;28;20272;-88
2021/12/03 09:31:58;;;;;;;;;;;;;;;;;;;;;
2021/12/03 09:34:25;;;;;;;5.63;3.38;;;5.30;77.20;;;;;;5053623;28;20044;-86
2021/12/03 09:37:04;;;;;;;4.97;3.40;;;5.40;77.20;;;;;;5053506;28;20025;-86
2021/12/03 09:39:39;;;;;;;5.40;3.35;;;5.30;77.10;;;;;;5054489;28;20028;-86
2021/12/03 09:42:05;;;;;;;4.80;3.17;;;5.30;77.10;;;;;;5053493;28;20120;-86
2021/12/03 09:44:43;;;;;;;4.90;3.35;;;5.40;77.10;;;;;;5053244;28;20412;-85
2021/12/03 09:47:12;;;;;;;4.78;3.03;;;5.40;77.20;;;;;;5053647;28;20033;-86
2021/12/03 09:49:45;;;;;;;4.78;3.08;;;5.40;77.10;;;;;;5053281;28;20017;-86
2021/12/03 09:52:39;;;;;;;5.05;3.22;;;5.40;77.10;;;;;;5053531;28;20033;-86
2021/12/03 09:55:18;;;;;;;6.10;3.40;;;5.40;77.40;;;;;;5053882;28;20047;-87
2021/12/03 09:58:17;;;;;;;5.03;3.13;;;5.50;77.10;;;;;;5037412;28;20116;-86
2021/12/03 10:00:58;;;;;;;5.00;2.92;;;5.50;77.10;;;;;;5026862;28;20053;-86
2021/12/03 10:03:57;;;;;;;4.93;3.17;;;5.50;77.10;;;;;;5038574;28;20044;-86
2021/12/03 10:18:02;;;;;;;3.90;2.80;;;5.50;77.20;;;;;;5053772;28;20033;-85
2021/12/03 10:20:45;;;;;;;5.68;3.05;;;5.50;77.20;;;;;;5036328;28;20025;-84
2021/12/03 10:24:11;;;;;;;3.85;2.30;;;5.60;77.30;;;;;;5038663;28;20041;-86
2021/12/03 10:27:01;;;;;;;4.97;2.53;;;5.60;77.20;;;;;;5052810;28;20044;-85
2021/12/03 10:29:36;;;;;;;4.47;3.00;;;5.60;77.20;;;;;;5054215;28;20029;-85
2021/12/03 10:32:38;;;;;;;3.20;2.20;;;5.60;77.10;;;;;;5053484;28;20025;-85
2021/12/03 11:39:42;;;;;;;4.00;2.25;;;6.00;77.30;;;;;;5055527;28;20041;-81
2021/12/03 12:02:34;;;;;;;3.88;2.33;;;6.10;77.20;;;;;;5054879;28;20044;-85
2021/12/03 14:05:32;;;;;;;2.78;2.10;;;6.90;77.10;;;;;;5053368;28;20124;-80
2021/12/03 14:29:51;;;;;;;3.40;2.17;;;7.00;77.10;;;;;;5057301;28;20044;-81
2021/12/03 14:42:58;;;;;;;2.65;1.90;;;7.10;77.00;;;;;;5057598;28;20025;-80
2021/12/03 14:45:40;;;;;;;3.30;1.85;;;7.20;77.00;;;;;;5056515;28;20029;-80
2021/12/03 14:56:15;;;;;;;;;;;7.20;76.90;;;;;;5015131;28;20137;-80
2021/12/03 14:58:49;;;;;;;2.63;2.13;;;7.20;76.90;;;;;;5028712;28;19917;-78
2021/12/03 15:06:39;;;;;;;3.33;2.03;;;7.30;76.90;;;;;;5055378;28;20079;-81
2021/12/03 15:14:48;;;;;;;2.47;2.10;;;7.20;76.80;;;;;;5041397;28;20033;-80
2021/12/03 15:33:19;;;;;;;3.72;2.25;;;7.30;76.80;;;;;;5055447;28;20064;-82
2021/12/03 16:16:27;;;;;;;2.60;2.05;;;7.40;76.80;;;;;;5055587;28;20028;-83
2021/12/03 16:19:01;;;;;;;2.90;2.20;;;7.40;76.80;;;;;;5038107;28;20120;-85
2021/12/03 16:53:23;;;;;;;3.20;2.30;;;7.40;76.80;;;;;;5054017;28;20036;-86
2021/12/03 16:56:05;;;;;;;3.85;1.90;;;7.40;76.80;;;;;;5037036;28;20197;-86
2021/12/03 16:58:33;;;;;;;2.30;2.08;;;7.40;76.80;;;;;;5053561;28;20033;-83
2021/12/03 17:25:12;;;;;;;2.60;1.95;;;7.50;76.80;;;;;;5053377;28;20061;-83
2021/12/03 17:46:43;;;;;;;2.20;2.00;;;7.40;76.80;;;;;;5056991;28;20040;-83
2021/12/03 17:49:22;;;;;;;2.60;2.00;;;7.50;76.90;;;;;;5057769;28;20041;-82
2021/12/03 17:52:13;;;;;;;2.83;2.20;;;7.40;76.90;;;;;;5040168;28;20029;-83
2021/12/03 17:59:50;;;;;;;2.17;1.83;;;7.40;76.80;;;;;;5057155;28;20033;-86
2021/12/03 18:07:32;;;;;;;2.30;2.10;;;7.50;76.90;;;;;;5056643;28;20025;-82
2021/12/03 18:10:26;;;;;;;2.20;2.00;;;7.50;76.90;;;;;;5040178;28;20061;-86
2021/12/03 18:46:01;;;;;;;1.88;1.77;;;7.50;76.90;;;;;;5056725;28;20466;-82
2021/12/03 18:48:53;;;;;;;2.33;2.13;;;7.50;76.90;;;;;;5055928;28;20033;-83
2021/12/03 18:51:29;;;;;;;2.22;1.98;;;7.50;76.90;;;;;;5014553;28;20119;-82
2021/12/03 18:56:35;;;;;;;2.30;2.10;;;7.50;77.00;;;;;;5040614;28;20131;-86
2021/12/03 18:59:07;;;;;;;2.50;2.30;;;7.50;76.90;;;;;;5039981;28;20192;-86
2021/12/03 19:01:34;;;;;;;2.28;2.08;;;7.50;76.90;;;;;;5038807;28;20143;-85
2021/12/03 19:09:08;;;;;;;1.98;1.85;;;7.50;76.90;;;;;;5039029;28;20120;-88
2021/12/03 19:11:37;;;;;;;2.25;2.00;;;7.50;76.90;;;;;;5040407;28;20104;-83
2021/12/03 19:14:04;;;;;;;2.67;2.20;;;7.60;76.90;;;;;;5040023;28;20033;-84
2021/12/03 19:16:30;;;;;;;2.35;2.15;;;7.60;76.90;;;;;;5039186;28;20120;-85
2021/12/03 19:18:58;;;;;;;2.50;2.28;;;7.60;76.90;;;;;;5022943;28;20032;-86
2021/12/03 19:21:26;;;;;;;2.25;2.05;;;7.60;76.90;;;;;;5055118;28;20052;-84
2021/12/03 19:23:57;;;;;;;2.63;2.42;;;7.60;76.90;;;;;;5039190;28;20028;-85
2021/12/03 19:26:23;;;;;;;2.65;2.30;;;7.60;76.90;;;;;;5040213;28;20511;-86
2021/12/03 19:28:53;;;;;;;2.78;2.40;;;7.60;76.90;;;;;;5040168;28;20025;-87
2021/12/03 19:31:21;;;;;;;2.55;2.35;;;7.60;76.90;;;;;;5038714;28;20128;-87
2021/12/03 19:33:47;;;;;;;2.65;2.45;;;7.60;76.90;;;;;;5055654;28;20036;-87
2021/12/03 19:36:20;;;;;;;2.50;2.30;;;7.60;76.90;;;;;;5054922;28;20056;-87
2021/12/03 19:38:47;;;;;;;2.50;2.30;;;7.60;76.90;;;;;;5023064;28;20438;-87
2021/12/03 19:41:37;;;;;;;2.90;2.63;;;7.60;76.90;;;;;;5054608;28;20065;-85
2021/12/03 19:44:04;;;;;;;2.67;2.40;;;7.60;76.90;;;;;;5054526;28;20154;-88
2021/12/03 19:46:33;;;;;;;2.88;2.63;;;7.60;76.80;;;;;;5038530;28;20021;-87
2021/12/03 19:51:29;;;;;;;2.72;2.47;;;7.70;76.90;;;;;;5055587;28;20021;-87
2021/12/03 19:56:29;;;;;;;2.78;2.50;;;7.60;76.80;;;;;;5056370;28;20024;-85
2021/12/03 19:58:58;;;;;;;3.03;2.73;;;7.70;76.90;;;;;;5054807;28;20057;-86
2021/12/03 20:01:24;;;;;;;2.63;2.42;;;7.60;76.80;;;;;;5055079;28;20290;-85
2021/12/03 20:03:53;;;;;;;2.58;2.38;;;7.60;76.80;;;;;;5054373;28;20053;-86
2021/12/03 20:06:21;;;;;;;3.00;2.58;;;7.70;76.90;;;;;;5055103;28;20037;-82
2021/12/03 20:08:50;;;;;;;3.00;2.65;;;7.70;76.90;;;;;;5054577;28;20040;-85
2021/12/03 20:11:16;;;;;;;3.15;2.53;;;7.60;76.80;;;;;;5038663;28;20052;-86
2021/12/03 20:13:46;;;;;;;3.58;3.00;;;7.60;76.80;;;;;;5054204;28;20092;-85
2021/12/03 20:18:43;;;;;;;2.67;2.47;;;7.70;76.90;;;;;;5054236;28;20045;-86
2021/12/03 20:21:10;;;;;;;2.80;2.60;;;7.70;76.90;;;;;;5054358;28;20040;-86
2021/12/03 20:31:18;;;;;;;2.67;2.47;;;7.70;76.90;;;;;;5055134;28;20029;-85
2021/12/03 20:34:03;;;;;;;3.13;2.83;;;7.70;76.90;;;;;;5053896;28;20033;-86
2021/12/03 20:36:43;;;;;;;2.90;2.60;;;7.70;76.90;;;;;;5040381;28;20044;-87
2021/12/03 20:39:21;;;;;;;2.85;2.58;;;7.70;76.90;;;;;;5054010;28;20115;-85
2021/12/03 20:42:14;;;;;;;2.78;2.50;;;7.70;76.90;;;;;;5038281;28;20074;-85
2021/12/03 20:48:00;;;;;;;3.17;2.63;;;7.70;76.90;;;;;;5039182;28;20029;-84
2021/12/03 21:08:38;;;;;;;3.35;2.97;;;7.70;76.90;;;;;;5053062;28;20036;-86
2021/12/03 21:11:07;;;;;;;2.92;2.60;;;7.70;76.90;;;;;;5021142;28;20029;-84
2021/12/03 21:13:37;;;;;;;3.30;2.80;;;7.70;76.90;;;;;;5053001;28;20103;-86
2021/12/03 21:21:52;;;;;;;3.00;2.70;;;7.70;76.90;;;;;;5009269;28;20068;-86
2021/12/03 21:24:18;;;;;;;2.75;2.53;;;7.70;76.90;;;;;;5039375;28;20030;-88